sensor_id;sensor_type;location;lat;lon;timestamp;P1;durP1;ratioP1;P2;durP2;ratioP2
30892;SDS011;17595;50.884;4.346;2023-04-03T00:01:13;8.98;;;6.93;;
30892;SDS011;17595;50.884;4.346;2023-04-03T00:03:39;10.13;;;6.70;;
30892;SDS011;17595;50.884;4.346;2023-04-03T00:06:06;10.05;;;6.32;;
30892;SDS011;17595;50.884;4.346;2023-04-03T00:08:33;11.30;;;6.65;;
30892;SDS011;17595;50.884;4.346;2023-04-03T00:11:00;9.65;;;5.93;;
30892;SDS011;17595;50.884;4.346;2023-04-03T00:13:26;9.52;;;6.53;;
30892;SDS011;17595;50.884;4.346;2023-04-03T00:15:52;8.40;;;6.25;;
30892;SDS011;17595;50.884;4.346;2023-04-03T00:18:18;15.32;;;6.57;;
30892;SDS011;17595;50.884;4.346;2023-04-03T00:20:43;10.50;;;5.80;;
30892;SDS011;17595;50.884;4.346;2023-04-03T00:23:09;11.82;;;6.22;;
30892;SDS011;17595;50.884;4.346;2023-04-03T00:25:35;7.88;;;5.97;;
30892;SDS011;17595;50.884;4.346;2023-04-03T00:28:02;6.90;;;5.43;;
30892;SDS011;17595;50.884;4.346;2023-04-03T00:30:28;10.23;;;6.28;;
30892;SDS011;17595;50.884;4.346;2023-04-03T00:32:54;9.75;;;5.97;;
30892;SDS011;17595;50.884;4.346;2023-04-03T00:35:20;8.75;;;5.40;;
30892;SDS011;17595;50.884;4.346;2023-04-03T00:37:46;8.43;;;5.38;;
30892;SDS011;17595;50.884;4.346;2023-04-03T00:40:13;7.43;;;5.72;;
30892;SDS011;17595;50.884;4.346;2023-04-03T00:42:41;8.27;;;5.35;;
30892;SDS011;17595;50.884;4.346;2023-04-03T00:47:36;9.10;;;5.90;;
30892;SDS011;17595;50.884;4.346;2023-04-03T00:50:03;6.70;;;5.32;;
30892;SDS011;17595;50.884;4.346;2023-04-03T00:52:29;9.15;;;5.80;;
30892;SDS011;17595;50.884;4.346;2023-04-03T00:54:57;6.47;;;5.40;;
30892;SDS011;17595;50.884;4.346;2023-04-03T00:57:25;8.07;;;5.72;;
30892;SDS011;17595;50.884;4.346;2023-04-03T00:59:53;7.35;;;5.80;;
30892;SDS011;17595;50.884;4.346;2023-04-03T01:02:22;11.13;;;6.32;;
30892;SDS011;17595;50.884;4.346;2023-04-03T01:04:47;16.40;;;6.13;;
30892;SDS011;17595;50.884;4.346;2023-04-03T01:07:15;9.02;;;5.55;;
30892;SDS011;17595;50.884;4.346;2023-04-03T01:09:49;7.22;;;5.78;;
30892;SDS011;17595;50.884;4.346;2023-04-03T01:12:21;7.53;;;5.63;;
30892;SDS011;17595;50.884;4.346;2023-04-03T01:15:00;8.02;;;5.30;;
30892;SDS011;17595;50.884;4.346;2023-04-03T01:17:48;8.15;;;5.53;;
30892;SDS011;17595;50.884;4.346;2023-04-03T01:28:16;8.65;;;5.50;;
30892;SDS011;17595;50.884;4.346;2023-04-03T01:33:30;8.50;;;5.40;;
30892;SDS011;17595;50.884;4.346;2023-04-03T01:35:56;9.25;;;5.60;;
30892;SDS011;17595;50.884;4.346;2023-04-03T01:38:22;7.32;;;5.22;;
30892;SDS011;17595;50.884;4.346;2023-04-03T01:40:48;7.55;;;5.00;;
30892;SDS011;17595;50.884;4.346;2023-04-03T01:43:13;8.90;;;5.47;;
30892;SDS011;17595;50.884;4.346;2023-04-03T01:45:39;8.20;;;5.35;;
30892;SDS011;17595;50.884;4.346;2023-04-03T01:48:05;9.52;;;5.22;;
30892;SDS011;17595;50.884;4.346;2023-04-03T01:50:31;7.85;;;5.65;;
30892;SDS011;17595;50.884;4.346;2023-04-03T01:52:56;6.70;;;5.25;;
30892;SDS011;17595;50.884;4.346;2023-04-03T01:55:22;6.57;;;4.72;;
30892;SDS011;17595;50.884;4.346;2023-04-03T01:57:48;11.52;;;5.22;;
30892;SDS011;17595;50.884;4.346;2023-04-03T02:00:13;10.07;;;5.13;;
30892;SDS011;17595;50.884;4.346;2023-04-03T02:02:39;9.02;;;5.53;;
30892;SDS011;17595;50.884;4.346;2023-04-03T02:05:05;7.32;;;4.80;;
30892;SDS011;17595;50.884;4.346;2023-04-03T02:07:31;9.63;;;5.32;;
30892;SDS011;17595;50.884;4.346;2023-04-03T02:09:57;8.05;;;5.15;;
30892;SDS011;17595;50.884;4.346;2023-04-03T02:12:22;8.30;;;5.40;;
30892;SDS011;17595;50.884;4.346;2023-04-03T02:14:48;10.27;;;4.75;;
30892;SDS011;17595;50.884;4.346;2023-04-03T02:17:13;7.68;;;5.05;;
30892;SDS011;17595;50.884;4.346;2023-04-03T02:19:40;6.38;;;5.47;;
30892;SDS011;17595;50.884;4.346;2023-04-03T02:22:05;8.50;;;5.80;;
30892;SDS011;17595;50.884;4.346;2023-04-03T02:24:31;9.35;;;5.25;;
30892;SDS011;17595;50.884;4.346;2023-04-03T02:26:57;7.47;;;5.25;;
30892;SDS011;17595;50.884;4.346;2023-04-03T02:29:23;6.45;;;5.30;;
30892;SDS011;17595;50.884;4.346;2023-04-03T02:31:49;9.90;;;5.20;;
30892;SDS011;17595;50.884;4.346;2023-04-03T02:34:15;6.75;;;5.57;;
30892;SDS011;17595;50.884;4.346;2023-04-03T02:36:40;9.98;;;5.05;;
30892;SDS011;17595;50.884;4.346;2023-04-03T02:39:06;7.85;;;4.85;;
30892;SDS011;17595;50.884;4.346;2023-04-03T02:41:32;11.68;;;5.15;;
30892;SDS011;17595;50.884;4.346;2023-04-03T02:44:01;7.33;;;5.07;;
30892;SDS011;17595;50.884;4.346;2023-04-03T02:46:28;10.70;;;5.28;;
30892;SDS011;17595;50.884;4.346;2023-04-03T02:48:53;8.40;;;5.25;;
30892;SDS011;17595;50.884;4.346;2023-04-03T02:51:19;7.90;;;5.28;;
30892;SDS011;17595;50.884;4.346;2023-04-03T02:53:45;8.38;;;5.75;;
30892;SDS011;17595;50.884;4.346;2023-04-03T02:56:10;11.43;;;5.85;;
30892;SDS011;17595;50.884;4.346;2023-04-03T02:58:36;8.40;;;5.32;;
30892;SDS011;17595;50.884;4.346;2023-04-03T03:01:01;11.32;;;5.18;;
30892;SDS011;17595;50.884;4.346;2023-04-03T03:03:27;8.18;;;5.30;;
30892;SDS011;17595;50.884;4.346;2023-04-03T03:06:03;6.95;;;5.13;;
30892;SDS011;17595;50.884;4.346;2023-04-03T03:08:33;9.18;;;5.07;;
30892;SDS011;17595;50.884;4.346;2023-04-03T03:10:59;9.10;;;5.78;;
30892;SDS011;17595;50.884;4.346;2023-04-03T03:13:25;9.25;;;5.55;;
30892;SDS011;17595;50.884;4.346;2023-04-03T03:15:51;11.45;;;5.30;;
30892;SDS011;17595;50.884;4.346;2023-04-03T03:18:16;5.63;;;5.00;;
30892;SDS011;17595;50.884;4.346;2023-04-03T03:20:42;10.90;;;4.93;;
30892;SDS011;17595;50.884;4.346;2023-04-03T03:23:08;7.85;;;5.47;;
30892;SDS011;17595;50.884;4.346;2023-04-03T03:25:37;9.20;;;5.78;;
30892;SDS011;17595;50.884;4.346;2023-04-03T03:28:03;8.13;;;6.18;;
30892;SDS011;17595;50.884;4.346;2023-04-03T03:30:29;8.30;;;5.00;;
30892;SDS011;17595;50.884;4.346;2023-04-03T03:32:55;7.20;;;5.53;;
30892;SDS011;17595;50.884;4.346;2023-04-03T03:35:21;8.88;;;6.00;;
30892;SDS011;17595;50.884;4.346;2023-04-03T03:37:46;8.40;;;5.35;;
30892;SDS011;17595;50.884;4.346;2023-04-03T03:40:12;8.73;;;5.38;;
30892;SDS011;17595;50.884;4.346;2023-04-03T03:42:38;5.70;;;5.00;;
30892;SDS011;17595;50.884;4.346;2023-04-03T03:45:04;8.27;;;6.05;;
30892;SDS011;17595;50.884;4.346;2023-04-03T03:47:30;8.55;;;5.63;;
30892;SDS011;17595;50.884;4.346;2023-04-03T03:49:56;10.95;;;6.32;;
30892;SDS011;17595;50.884;4.346;2023-04-03T03:52:21;10.75;;;6.30;;
30892;SDS011;17595;50.884;4.346;2023-04-03T03:54:47;11.90;;;6.18;;
30892;SDS011;17595;50.884;4.346;2023-04-03T03:57:13;8.63;;;5.93;;
30892;SDS011;17595;50.884;4.346;2023-04-03T03:59:38;8.75;;;5.97;;
30892;SDS011;17595;50.884;4.346;2023-04-03T04:02:06;8.00;;;5.38;;
30892;SDS011;17595;50.884;4.346;2023-04-03T04:04:32;8.15;;;5.70;;
30892;SDS011;17595;50.884;4.346;2023-04-03T04:06:58;9.00;;;5.50;;
30892;SDS011;17595;50.884;4.346;2023-04-03T04:09:25;9.90;;;5.97;;
30892;SDS011;17595;50.884;4.346;2023-04-03T04:11:51;11.65;;;6.72;;
30892;SDS011;17595;50.884;4.346;2023-04-03T04:14:17;9.35;;;6.13;;
30892;SDS011;17595;50.884;4.346;2023-04-03T04:16:45;7.15;;;5.80;;
30892;SDS011;17595;50.884;4.346;2023-04-03T04:19:11;8.40;;;6.30;;
30892;SDS011;17595;50.884;4.346;2023-04-03T04:21:36;10.88;;;6.10;;
30892;SDS011;17595;50.884;4.346;2023-04-03T04:24:02;8.30;;;5.93;;
30892;SDS011;17595;50.884;4.346;2023-04-03T04:26:28;7.10;;;6.25;;
30892;SDS011;17595;50.884;4.346;2023-04-03T04:28:53;9.25;;;6.20;;
30892;SDS011;17595;50.884;4.346;2023-04-03T04:31:19;9.52;;;6.53;;
30892;SDS011;17595;50.884;4.346;2023-04-03T04:33:45;8.13;;;6.22;;
30892;SDS011;17595;50.884;4.346;2023-04-03T04:36:10;8.02;;;6.07;;
30892;SDS011;17595;50.884;4.346;2023-04-03T04:38:36;8.48;;;6.53;;
30892;SDS011;17595;50.884;4.346;2023-04-03T04:41:01;14.35;;;6.88;;
30892;SDS011;17595;50.884;4.346;2023-04-03T04:43:27;9.68;;;7.00;;
30892;SDS011;17595;50.884;4.346;2023-04-03T04:46:02;9.27;;;7.22;;
30892;SDS011;17595;50.884;4.346;2023-04-03T04:48:29;13.02;;;7.07;;
30892;SDS011;17595;50.884;4.346;2023-04-03T04:50:55;8.80;;;6.57;;
30892;SDS011;17595;50.884;4.346;2023-04-03T04:53:20;7.95;;;6.50;;
30892;SDS011;17595;50.884;4.346;2023-04-03T04:55:46;10.50;;;7.00;;
30892;SDS011;17595;50.884;4.346;2023-04-03T04:58:12;10.45;;;6.97;;
30892;SDS011;17595;50.884;4.346;2023-04-03T05:00:38;12.25;;;7.57;;
30892;SDS011;17595;50.884;4.346;2023-04-03T05:03:03;11.20;;;7.38;;
30892;SDS011;17595;50.884;4.346;2023-04-03T05:05:29;10.93;;;7.00;;
30892;SDS011;17595;50.884;4.346;2023-04-03T05:07:55;10.68;;;7.25;;
30892;SDS011;17595;50.884;4.346;2023-04-03T05:10:20;11.90;;;7.70;;
30892;SDS011;17595;50.884;4.346;2023-04-03T05:12:46;11.68;;;7.90;;
30892;SDS011;17595;50.884;4.346;2023-04-03T05:15:12;11.25;;;7.30;;
30892;SDS011;17595;50.884;4.346;2023-04-03T05:17:37;10.32;;;7.63;;
30892;SDS011;17595;50.884;4.346;2023-04-03T05:20:03;11.60;;;7.70;;
30892;SDS011;17595;50.884;4.346;2023-04-03T05:22:29;11.20;;;7.53;;
30892;SDS011;17595;50.884;4.346;2023-04-03T05:24:56;10.63;;;7.57;;
30892;SDS011;17595;50.884;4.346;2023-04-03T05:27:21;11.95;;;7.90;;
30892;SDS011;17595;50.884;4.346;2023-04-03T05:29:48;10.43;;;7.28;;
30892;SDS011;17595;50.884;4.346;2023-04-03T05:32:15;11.77;;;7.85;;
30892;SDS011;17595;50.884;4.346;2023-04-03T05:34:41;12.98;;;8.57;;
30892;SDS011;17595;50.884;4.346;2023-04-03T05:37:06;10.30;;;7.38;;
30892;SDS011;17595;50.884;4.346;2023-04-03T05:39:32;12.88;;;7.72;;
30892;SDS011;17595;50.884;4.346;2023-04-03T05:41:58;10.45;;;7.75;;
30892;SDS011;17595;50.884;4.346;2023-04-03T05:44:23;14.48;;;9.05;;
30892;SDS011;17595;50.884;4.346;2023-04-03T05:46:49;11.15;;;8.50;;
30892;SDS011;17595;50.884;4.346;2023-04-03T05:49:15;10.57;;;8.00;;
30892;SDS011;17595;50.884;4.346;2023-04-03T05:51:40;10.90;;;8.02;;
30892;SDS011;17595;50.884;4.346;2023-04-03T05:54:12;9.65;;;8.45;;
30892;SDS011;17595;50.884;4.346;2023-04-03T05:56:50;13.00;;;8.77;;
30892;SDS011;17595;50.884;4.346;2023-04-03T05:59:16;10.18;;;8.25;;
30892;SDS011;17595;50.884;4.346;2023-04-03T06:01:43;13.93;;;8.68;;
30892;SDS011;17595;50.884;4.346;2023-04-03T06:04:09;14.40;;;8.30;;
30892;SDS011;17595;50.884;4.346;2023-04-03T06:06:54;13.88;;;8.73;;
30892;SDS011;17595;50.884;4.346;2023-04-03T06:09:23;12.93;;;9.30;;
30892;SDS011;17595;50.884;4.346;2023-04-03T06:11:51;17.45;;;9.00;;
30892;SDS011;17595;50.884;4.346;2023-04-03T06:14:18;16.58;;;9.20;;
30892;SDS011;17595;50.884;4.346;2023-04-03T06:16:43;15.02;;;9.05;;
30892;SDS011;17595;50.884;4.346;2023-04-03T06:19:10;15.70;;;9.77;;
30892;SDS011;17595;50.884;4.346;2023-04-03T06:21:37;13.27;;;9.55;;
30892;SDS011;17595;50.884;4.346;2023-04-03T06:24:03;12.15;;;9.50;;
30892;SDS011;17595;50.884;4.346;2023-04-03T06:26:29;14.85;;;9.60;;
30892;SDS011;17595;50.884;4.346;2023-04-03T06:28:55;16.05;;;9.40;;
30892;SDS011;17595;50.884;4.346;2023-04-03T06:31:21;13.88;;;9.68;;
30892;SDS011;17595;50.884;4.346;2023-04-03T06:33:46;17.10;;;9.52;;
30892;SDS011;17595;50.884;4.346;2023-04-03T06:36:12;11.52;;;9.77;;
30892;SDS011;17595;50.884;4.346;2023-04-03T06:38:38;15.15;;;9.75;;
30892;SDS011;17595;50.884;4.346;2023-04-03T06:41:03;12.80;;;9.40;;
30892;SDS011;17595;50.884;4.346;2023-04-03T06:43:29;13.30;;;9.95;;
30892;SDS011;17595;50.884;4.346;2023-04-03T06:45:56;13.52;;;9.63;;
30892;SDS011;17595;50.884;4.346;2023-04-03T06:48:22;17.10;;;10.65;;
30892;SDS011;17595;50.884;4.346;2023-04-03T06:50:48;13.75;;;9.73;;
30892;SDS011;17595;50.884;4.346;2023-04-03T06:53:13;14.82;;;10.02;;
30892;SDS011;17595;50.884;4.346;2023-04-03T06:55:39;14.20;;;10.23;;
30892;SDS011;17595;50.884;4.346;2023-04-03T06:58:06;13.30;;;9.48;;
30892;SDS011;17595;50.884;4.346;2023-04-03T07:00:32;13.65;;;9.02;;
30892;SDS011;17595;50.884;4.346;2023-04-03T07:02:59;11.10;;;8.55;;
30892;SDS011;17595;50.884;4.346;2023-04-03T07:05:25;12.77;;;9.05;;
30892;SDS011;17595;50.884;4.346;2023-04-03T07:07:52;15.20;;;9.38;;
30892;SDS011;17595;50.884;4.346;2023-04-03T07:10:18;11.73;;;8.10;;
30892;SDS011;17595;50.884;4.346;2023-04-03T07:12:45;13.10;;;7.97;;
30892;SDS011;17595;50.884;4.346;2023-04-03T07:15:11;12.35;;;7.65;;
30892;SDS011;17595;50.884;4.346;2023-04-03T07:17:38;14.13;;;7.95;;
30892;SDS011;17595;50.884;4.346;2023-04-03T07:20:04;12.50;;;7.80;;
30892;SDS011;17595;50.884;4.346;2023-04-03T07:22:30;12.10;;;8.07;;
30892;SDS011;17595;50.884;4.346;2023-04-03T07:24:55;11.50;;;7.93;;
30892;SDS011;17595;50.884;4.346;2023-04-03T07:27:21;9.27;;;7.68;;
30892;SDS011;17595;50.884;4.346;2023-04-03T07:29:47;11.95;;;7.53;;
30892;SDS011;17595;50.884;4.346;2023-04-03T07:32:13;12.75;;;7.65;;
30892;SDS011;17595;50.884;4.346;2023-04-03T07:34:40;11.18;;;8.32;;
30892;SDS011;17595;50.884;4.346;2023-04-03T07:37:06;10.80;;;7.10;;
30892;SDS011;17595;50.884;4.346;2023-04-03T07:39:32;11.23;;;7.80;;
30892;SDS011;17595;50.884;4.346;2023-04-03T07:41:58;18.42;;;8.45;;
30892;SDS011;17595;50.884;4.346;2023-04-03T07:44:23;12.05;;;7.57;;
30892;SDS011;17595;50.884;4.346;2023-04-03T07:46:49;11.05;;;7.63;;
30892;SDS011;17595;50.884;4.346;2023-04-03T07:49:15;13.68;;;7.93;;
30892;SDS011;17595;50.884;4.346;2023-04-03T07:51:43;12.35;;;7.50;;
30892;SDS011;17595;50.884;4.346;2023-04-03T07:54:09;12.85;;;6.97;;
30892;SDS011;17595;50.884;4.346;2023-04-03T07:56:35;14.35;;;7.18;;
30892;SDS011;17595;50.884;4.346;2023-04-03T07:59:00;10.57;;;7.22;;
30892;SDS011;17595;50.884;4.346;2023-04-03T08:01:26;11.52;;;7.32;;
30892;SDS011;17595;50.884;4.346;2023-04-03T08:03:52;11.88;;;7.40;;
30892;SDS011;17595;50.884;4.346;2023-04-03T08:06:18;9.60;;;6.35;;
30892;SDS011;17595;50.884;4.346;2023-04-03T08:08:43;14.55;;;7.03;;
30892;SDS011;17595;50.884;4.346;2023-04-03T08:11:09;12.35;;;6.75;;
30892;SDS011;17595;50.884;4.346;2023-04-03T08:13:36;9.27;;;6.28;;
30892;SDS011;17595;50.884;4.346;2023-04-03T08:16:34;9.77;;;6.38;;
30892;SDS011;17595;50.884;4.346;2023-04-03T08:18:53;9.60;;;6.20;;
30892;SDS011;17595;50.884;4.346;2023-04-03T08:21:20;8.00;;;6.32;;
30892;SDS011;17595;50.884;4.346;2023-04-03T08:23:47;12.35;;;6.85;;
30892;SDS011;17595;50.884;4.346;2023-04-03T08:26:16;12.27;;;7.07;;
30892;SDS011;17595;50.884;4.346;2023-04-03T08:28:44;10.02;;;6.35;;
30892;SDS011;17595;50.884;4.346;2023-04-03T08:31:10;10.70;;;6.45;;
30892;SDS011;17595;50.884;4.346;2023-04-03T08:33:38;13.50;;;6.32;;
30892;SDS011;17595;50.884;4.346;2023-04-03T08:36:05;7.63;;;5.43;;
30892;SDS011;17595;50.884;4.346;2023-04-03T08:38:33;8.55;;;5.97;;
30892;SDS011;17595;50.884;4.346;2023-04-03T08:41:04;10.20;;;5.57;;
30892;SDS011;17595;50.884;4.346;2023-04-03T08:43:49;12.05;;;6.07;;
30892;SDS011;17595;50.884;4.346;2023-04-03T08:49:19;7.25;;;4.90;;
30892;SDS011;17595;50.884;4.346;2023-04-03T08:51:52;7.78;;;4.97;;
30892;SDS011;17595;50.884;4.346;2023-04-03T08:54:30;6.85;;;4.50;;
30892;SDS011;17595;50.884;4.346;2023-04-03T08:57:00;7.88;;;5.60;;
30892;SDS011;17595;50.884;4.346;2023-04-03T08:59:29;8.68;;;5.00;;
30892;SDS011;17595;50.884;4.346;2023-04-03T09:02:03;7.95;;;4.88;;
30892;SDS011;17595;50.884;4.346;2023-04-03T09:04:38;7.47;;;4.90;;
30892;SDS011;17595;50.884;4.346;2023-04-03T09:07:13;12.52;;;5.22;;
30892;SDS011;17595;50.884;4.346;2023-04-03T09:09:45;9.68;;;4.38;;
30892;SDS011;17595;50.884;4.346;2023-04-03T09:12:21;11.82;;;4.75;;
30892;SDS011;17595;50.884;4.346;2023-04-03T09:17:49;6.53;;;3.38;;
30892;SDS011;17595;50.884;4.346;2023-04-03T09:25:53;7.65;;;4.00;;
30892;SDS011;17595;50.884;4.346;2023-04-03T09:28:26;5.63;;;3.42;;
30892;SDS011;17595;50.884;4.346;2023-04-03T09:30:52;4.68;;;2.80;;
30892;SDS011;17595;50.884;4.346;2023-04-03T09:33:18;7.18;;;3.10;;
30892;SDS011;17595;50.884;4.346;2023-04-03T09:35:46;7.10;;;2.92;;
30892;SDS011;17595;50.884;4.346;2023-04-03T09:40:39;7.25;;;3.50;;
30892;SDS011;17595;50.884;4.346;2023-04-03T09:43:29;4.85;;;2.60;;
30892;SDS011;17595;50.884;4.346;2023-04-03T09:45:55;7.60;;;2.67;;
30892;SDS011;17595;50.884;4.346;2023-04-03T09:48:25;7.13;;;2.60;;
30892;SDS011;17595;50.884;4.346;2023-04-03T09:50:54;3.88;;;2.55;;
30892;SDS011;17595;50.884;4.346;2023-04-03T09:53:27;7.22;;;2.67;;
30892;SDS011;17595;50.884;4.346;2023-04-03T09:55:56;6.15;;;2.58;;
30892;SDS011;17595;50.884;4.346;2023-04-03T09:58:24;6.25;;;3.13;;
30892;SDS011;17595;50.884;4.346;2023-04-03T10:00:56;10.02;;;3.00;;
30892;SDS011;17595;50.884;4.346;2023-04-03T10:03:36;5.53;;;2.47;;
30892;SDS011;17595;50.884;4.346;2023-04-03T10:06:02;8.52;;;2.55;;
30892;SDS011;17595;50.884;4.346;2023-04-03T10:08:33;6.20;;;2.78;;
30892;SDS011;17595;50.884;4.346;2023-04-03T10:11:16;3.70;;;1.98;;
30892;SDS011;17595;50.884;4.346;2023-04-03T10:13:51;5.32;;;2.15;;
30892;SDS011;17595;50.884;4.346;2023-04-03T10:19:35;8.55;;;2.70;;
30892;SDS011;17595;50.884;4.346;2023-04-03T10:33:22;9.13;;;2.65;;
30892;SDS011;17595;50.884;4.346;2023-04-03T10:39:04;7.13;;;2.00;;
30892;SDS011;17595;50.884;4.346;2023-04-03T10:46:52;5.72;;;2.30;;
30892;SDS011;17595;50.884;4.346;2023-04-03T10:52:20;5.90;;;1.95;;
30892;SDS011;17595;50.884;4.346;2023-04-03T10:57:38;5.28;;;2.20;;
30892;SDS011;17595;50.884;4.346;2023-04-03T11:00:06;4.60;;;1.90;;
30892;SDS011;17595;50.884;4.346;2023-04-03T11:02:49;4.03;;;1.83;;
30892;SDS011;17595;50.884;4.346;2023-04-03T11:05:33;3.17;;;1.88;;
30892;SDS011;17595;50.884;4.346;2023-04-03T11:08:05;7.68;;;2.50;;
30892;SDS011;17595;50.884;4.346;2023-04-03T11:10:44;4.70;;;2.03;;
30892;SDS011;17595;50.884;4.346;2023-04-03T11:13:21;5.30;;;2.10;;
30892;SDS011;17595;50.884;4.346;2023-04-03T11:15:48;3.95;;;2.00;;
30892;SDS011;17595;50.884;4.346;2023-04-03T11:18:28;9.57;;;2.05;;
30892;SDS011;17595;50.884;4.346;2023-04-03T11:21:07;8.57;;;2.45;;
30892;SDS011;17595;50.884;4.346;2023-04-03T11:23:37;6.22;;;2.10;;
30892;SDS011;17595;50.884;4.346;2023-04-03T11:26:12;8.43;;;2.17;;
30892;SDS011;17595;50.884;4.346;2023-04-03T11:28:40;4.97;;;1.70;;
30892;SDS011;17595;50.884;4.346;2023-04-03T11:34:13;17.63;;;2.03;;
30892;SDS011;17595;50.884;4.346;2023-04-03T11:37:04;3.47;;;1.52;;
30892;SDS011;17595;50.884;4.346;2023-04-03T11:39:58;4.88;;;1.70;;
30892;SDS011;17595;50.884;4.346;2023-04-03T11:47:52;3.72;;;1.38;;
30892;SDS011;17595;50.884;4.346;2023-04-03T11:55:46;3.20;;;1.40;;
30892;SDS011;17595;50.884;4.346;2023-04-03T11:58:23;3.10;;;1.48;;
30892;SDS011;17595;50.884;4.346;2023-04-03T12:16:02;4.82;;;1.80;;
30892;SDS011;17595;50.884;4.346;2023-04-03T12:21:14;6.95;;;1.90;;
30892;SDS011;17595;50.884;4.346;2023-04-03T12:27:34;2.63;;;1.67;;
30892;SDS011;17595;50.884;4.346;2023-04-03T12:29:59;5.95;;;1.42;;
30892;SDS011;17595;50.884;4.346;2023-04-03T12:35:47;4.45;;;1.45;;
30892;SDS011;17595;50.884;4.346;2023-04-03T12:38:32;3.63;;;1.42;;
30892;SDS011;17595;50.884;4.346;2023-04-03T12:46:23;4.03;;;1.30;;
30892;SDS011;17595;50.884;4.346;2023-04-03T12:48:52;4.40;;;1.52;;
30892;SDS011;17595;50.884;4.346;2023-04-03T12:51:21;3.55;;;1.33;;
30892;SDS011;17595;50.884;4.346;2023-04-03T12:53:55;5.80;;;1.85;;
30892;SDS011;17595;50.884;4.346;2023-04-03T12:56:30;6.32;;;1.45;;
30892;SDS011;17595;50.884;4.346;2023-04-03T12:59:14;3.50;;;1.30;;
30892;SDS011;17595;50.884;4.346;2023-04-03T13:01:57;4.15;;;1.20;;
30892;SDS011;17595;50.884;4.346;2023-04-03T13:04:24;5.32;;;1.95;;
30892;SDS011;17595;50.884;4.346;2023-04-03T13:06:51;3.90;;;1.17;;
30892;SDS011;17595;50.884;4.346;2023-04-03T13:12:28;6.47;;;1.10;;
30892;SDS011;17595;50.884;4.346;2023-04-03T13:14:58;3.95;;;1.48;;
30892;SDS011;17595;50.884;4.346;2023-04-03T13:17:26;3.50;;;1.13;;
30892;SDS011;17595;50.884;4.346;2023-04-03T13:19:53;3.20;;;1.30;;
30892;SDS011;17595;50.884;4.346;2023-04-03T13:24:58;2.00;;;1.20;;
30892;SDS011;17595;50.884;4.346;2023-04-03T13:27:26;3.38;;;1.20;;
30892;SDS011;17595;50.884;4.346;2023-04-03T13:32:23;3.55;;;1.50;;
30892;SDS011;17595;50.884;4.346;2023-04-03T13:34:50;1.55;;;0.90;;
30892;SDS011;17595;50.884;4.346;2023-04-03T13:37:29;3.08;;;1.30;;
30892;SDS011;17595;50.884;4.346;2023-04-03T13:39:58;2.10;;;1.10;;
30892;SDS011;17595;50.884;4.346;2023-04-03T13:42:29;3.70;;;1.40;;
30892;SDS011;17595;50.884;4.346;2023-04-03T13:47:43;3.33;;;1.20;;
30892;SDS011;17595;50.884;4.346;2023-04-03T13:50:15;3.35;;;1.05;;
30892;SDS011;17595;50.884;4.346;2023-04-03T13:52:54;3.30;;;1.38;;
30892;SDS011;17595;50.884;4.346;2023-04-03T13:55:25;7.57;;;1.10;;
30892;SDS011;17595;50.884;4.346;2023-04-03T14:00:47;5.82;;;1.60;;
30892;SDS011;17595;50.884;4.346;2023-04-03T14:04:17;11.95;;;1.80;;
30892;SDS011;17595;50.884;4.346;2023-04-03T14:06:19;3.22;;;1.20;;
30892;SDS011;17595;50.884;4.346;2023-04-03T14:08:46;6.13;;;1.33;;
30892;SDS011;17595;50.884;4.346;2023-04-03T14:11:16;8.00;;;1.77;;
30892;SDS011;17595;50.884;4.346;2023-04-03T14:13:46;5.45;;;1.38;;
30892;SDS011;17595;50.884;4.346;2023-04-03T14:16:16;3.42;;;1.33;;
30892;SDS011;17595;50.884;4.346;2023-04-03T14:18:45;2.22;;;1.35;;
30892;SDS011;17595;50.884;4.346;2023-04-03T14:21:12;3.35;;;1.45;;
30892;SDS011;17595;50.884;4.346;2023-04-03T14:23:38;2.25;;;1.52;;
30892;SDS011;17595;50.884;4.346;2023-04-03T14:26:08;3.33;;;1.33;;
30892;SDS011;17595;50.884;4.346;2023-04-03T14:28:38;3.85;;;1.50;;
30892;SDS011;17595;50.884;4.346;2023-04-03T14:31:05;4.57;;;1.40;;
30892;SDS011;17595;50.884;4.346;2023-04-03T14:33:32;3.45;;;1.30;;
30892;SDS011;17595;50.884;4.346;2023-04-03T14:36:00;1.98;;;1.15;;
30892;SDS011;17595;50.884;4.346;2023-04-03T14:38:29;5.30;;;1.50;;
30892;SDS011;17595;50.884;4.346;2023-04-03T14:40:56;2.53;;;1.52;;
30892;SDS011;17595;50.884;4.346;2023-04-03T14:43:23;2.25;;;1.23;;
30892;SDS011;17595;50.884;4.346;2023-04-03T14:45:50;5.82;;;1.23;;
30892;SDS011;17595;50.884;4.346;2023-04-03T14:48:18;5.35;;;1.33;;
30892;SDS011;17595;50.884;4.346;2023-04-03T14:50:48;4.25;;;1.38;;
30892;SDS011;17595;50.884;4.346;2023-04-03T14:53:15;4.30;;;1.30;;
30892;SDS011;17595;50.884;4.346;2023-04-03T14:55:43;4.13;;;1.38;;
30892;SDS011;17595;50.884;4.346;2023-04-03T14:58:18;4.22;;;1.63;;
30892;SDS011;17595;50.884;4.346;2023-04-03T15:00:45;3.65;;;1.35;;
30892;SDS011;17595;50.884;4.346;2023-04-03T15:03:15;5.70;;;1.50;;
30892;SDS011;17595;50.884;4.346;2023-04-03T15:05:43;18.20;;;2.42;;
30892;SDS011;17595;50.884;4.346;2023-04-03T15:08:13;3.90;;;1.63;;
30892;SDS011;17595;50.884;4.346;2023-04-03T15:10:44;3.92;;;1.50;;
30892;SDS011;17595;50.884;4.346;2023-04-03T15:13:10;4.28;;;1.50;;
30892;SDS011;17595;50.884;4.346;2023-04-03T15:15:37;4.75;;;1.20;;
30892;SDS011;17595;50.884;4.346;2023-04-03T15:18:02;1.52;;;1.10;;
30892;SDS011;17595;50.884;4.346;2023-04-03T15:20:29;2.65;;;1.02;;
30892;SDS011;17595;50.884;4.346;2023-04-03T15:22:55;3.53;;;1.20;;
30892;SDS011;17595;50.884;4.346;2023-04-03T15:25:21;2.53;;;1.45;;
30892;SDS011;17595;50.884;4.346;2023-04-03T15:27:48;1.83;;;1.00;;
30892;SDS011;17595;50.884;4.346;2023-04-03T15:30:16;5.10;;;1.55;;
30892;SDS011;17595;50.884;4.346;2023-04-03T15:32:42;2.15;;;1.30;;
30892;SDS011;17595;50.884;4.346;2023-04-03T15:35:08;4.40;;;1.40;;
30892;SDS011;17595;50.884;4.346;2023-04-03T15:37:34;3.05;;;1.13;;
30892;SDS011;17595;50.884;4.346;2023-04-03T15:40:00;2.92;;;1.15;;
30892;SDS011;17595;50.884;4.346;2023-04-03T15:42:26;2.83;;;1.13;;
30892;SDS011;17595;50.884;4.346;2023-04-03T15:44:51;2.65;;;1.20;;
30892;SDS011;17595;50.884;4.346;2023-04-03T15:47:17;4.22;;;1.45;;
30892;SDS011;17595;50.884;4.346;2023-04-03T15:49:43;1.77;;;1.15;;
30892;SDS011;17595;50.884;4.346;2023-04-03T15:52:09;4.80;;;1.27;;
30892;SDS011;17595;50.884;4.346;2023-04-03T15:54:34;2.80;;;1.25;;
30892;SDS011;17595;50.884;4.346;2023-04-03T15:57:00;2.58;;;1.10;;
30892;SDS011;17595;50.884;4.346;2023-04-03T15:59:25;3.92;;;1.65;;
30892;SDS011;17595;50.884;4.346;2023-04-03T16:01:53;4.72;;;1.40;;
30892;SDS011;17595;50.884;4.346;2023-04-03T16:04:19;3.70;;;1.30;;
30892;SDS011;17595;50.884;4.346;2023-04-03T16:06:46;2.90;;;1.23;;
30892;SDS011;17595;50.884;4.346;2023-04-03T16:09:11;3.60;;;1.33;;
30892;SDS011;17595;50.884;4.346;2023-04-03T16:11:37;3.80;;;1.20;;
30892;SDS011;17595;50.884;4.346;2023-04-03T16:14:05;2.90;;;1.27;;
30892;SDS011;17595;50.884;4.346;2023-04-03T16:16:32;3.28;;;1.52;;
30892;SDS011;17595;50.884;4.346;2023-04-03T16:18:57;3.65;;;1.50;;
30892;SDS011;17595;50.884;4.346;2023-04-03T16:21:23;2.53;;;1.40;;
30892;SDS011;17595;50.884;4.346;2023-04-03T16:23:49;2.38;;;1.35;;
30892;SDS011;17595;50.884;4.346;2023-04-03T16:26:15;3.80;;;1.60;;
30892;SDS011;17595;50.884;4.346;2023-04-03T16:28:42;2.17;;;1.23;;
30892;SDS011;17595;50.884;4.346;2023-04-03T16:31:08;3.30;;;1.58;;
30892;SDS011;17595;50.884;4.346;2023-04-03T16:33:34;2.38;;;1.33;;
30892;SDS011;17595;50.884;4.346;2023-04-03T16:36:01;2.67;;;1.55;;
30892;SDS011;17595;50.884;4.346;2023-04-03T16:38:28;3.28;;;1.80;;
30892;SDS011;17595;50.884;4.346;2023-04-03T16:40:54;4.18;;;1.75;;
30892;SDS011;17595;50.884;4.346;2023-04-03T16:43:22;5.70;;;1.70;;